Time;durP1;ratioP1;P1;durP2;ratioP2;P2;SDS_P1;SDS_P2;PMS_P1;PMS_P2;Temp;Humidity;BMP_temperature;BMP_pressure;BME280_temperature;BME280_humidity;BME280_pressure;Samples;Min_cycle;Max_cycle;Signal;HPM_P1;HPM_P2
2021/06/08 00:02:23;;;;;;;;;;;;;;;10.45;100.00;99764.41;5038821;28;20276;-84
2021/06/08 00:04:50;;;;;;;;;;;;;;;10.37;100.00;99765.63;5055279;28;20402;-85
2021/06/08 00:07:18;;;;;;;;;;;;;;;10.38;100.00;99773.59;5071947;28;19943;-85
2021/06/08 00:09:45;;;;;;;;;;;;;;;10.16;100.00;99760.13;5072033;28;20367;-84
2021/06/08 00:12:13;;;;;;;;;;;;;;;10.04;100.00;99766.88;5038388;28;20666;-85
2021/06/08 00:14:40;;;;;;;;;;;;;;;10.06;100.00;99772.06;5055503;28;19925;-85
2021/06/08 00:17:07;;;;;;;;;;;;;;;9.98;100.00;99765.72;5053989;28;19968;-85
2021/06/08 00:19:34;;;;;;;;;;;;;;;9.95;100.00;99772.09;5056316;28;20019;-85
2021/06/08 00:22:01;;;;;;;;;;;;;;;9.98;100.00;99773.31;5055062;28;20384;-85
2021/06/08 00:24:29;;;;;;;;;;;;;;;9.93;100.00;99779.28;5088434;28;20042;-85
2021/06/08 00:27:01;;;;;;;;;;;;;;;9.94;100.00;99776.09;5039045;28;20283;-85
2021/06/08 00:29:28;;;;;;;;;;;;;;;9.69;100.00;99782.91;5056032;28;19925;-85
2021/06/08 00:31:56;;;;;;;;;;;;;;;9.78;100.00;99772.94;5054911;28;19925;-85
2021/06/08 00:34:23;;;;;;;;;;;;;;;9.79;100.00;99779.31;5021929;28;19925;-85
2021/06/08 00:36:50;;;;;;;;;;;;;;;9.84;100.00;99776.13;5055904;28;19925;-85
2021/06/08 00:39:17;;;;;;;;;;;;;;;9.91;100.00;99781.69;5038278;28;19928;-85
2021/06/08 00:53:25;;;;;;;;;;;;;;;9.62;100.00;99791.31;5004622;28;19925;-85
2021/06/08 00:55:52;;;;;;;;;;;;;;;9.61;100.00;99790.50;5054459;28;20017;-85
2021/06/08 00:58:19;;;;;;;;;;;;;;;9.44;100.00;99787.69;5071159;28;19925;-85
2021/06/08 01:00:46;;;;;;;;;;;;;;;9.38;100.00;99792.88;5070545;28;19933;-85
2021/06/08 01:03:14;;;;;;;;;;;;;;;9.51;100.00;99796.09;5054300;28;20403;-85
2021/06/08 01:05:41;;;;;;;;;;;;;;;9.53;100.00;99794.47;5053994;28;20276;-85
2021/06/08 01:08:08;;;;;;;;;;;;;;;9.59;100.00;99792.09;5054042;28;20291;-85
2021/06/08 01:10:35;;;;;;;;;;;;;;;9.48;100.00;99800.44;5055374;28;19925;-85
2021/06/08 01:13:02;;;;;;;;;;;;;;;9.33;100.00;99804.44;5037634;28;20394;-85
2021/06/08 01:15:29;;;;;;;;;;;;;;;9.11;100.00;99808.41;5054107;28;19925;-85
2021/06/08 01:17:56;;;;;;;;;;;;;;;9.09;100.00;99808.81;5053866;28;19955;-85
2021/06/08 01:20:25;;;;;;;;;;;;;;;9.16;100.00;99806.00;5055212;28;20599;-85
2021/06/08 01:22:53;;;;;;;;;;;;;;;9.16;100.00;99808.81;5037362;28;20304;-85
2021/06/08 01:25:20;;;;;;;;;;;;;;;9.18;100.00;99804.84;5033971;28;20300;-85
2021/06/08 01:27:49;;;;;;;;;;;;;;;9.24;100.00;99804.03;5065297;28;19929;-85
2021/06/08 01:30:16;;;;;;;;;;;;;;;8.93;100.00;99808.38;5053678;28;19929;-85
2021/06/08 01:32:44;;;;;;;;;;;;;;;8.79;100.00;99805.56;5053680;28;19925;-85
2021/06/08 01:35:12;;;;;;;;;;;;;;;8.97;100.00;99809.19;5039735;28;20409;-85
2021/06/08 01:37:40;;;;;;;;;;;;;;;9.03;100.00;99804.81;5054642;28;20014;-85
2021/06/08 01:40:07;;;;;;;;;;;;;;;9.09;100.00;99808.81;5054564;28;19925;-86
2021/06/08 01:42:36;;;;;;;;;;;;;;;8.96;100.00;99815.94;5053646;28;20013;-85
2021/06/08 01:45:03;;;;;;;;;;;;;;;8.97;100.00;99816.72;5020522;28;19925;-85
2021/06/08 01:47:30;;;;;;;;;;;;;;;8.90;100.00;99823.09;5053468;28;19932;-86
2021/06/08 01:49:58;;;;;;;;;;;;;;;8.80;100.00;99811.91;5054351;28;19928;-86
2021/06/08 01:52:34;;;;;;;;;;;;;;;8.82;100.00;99820.69;5053417;28;20399;-86
2021/06/08 01:55:11;;;;;;;;;;;;;;;8.80;100.00;99823.06;5070033;28;19928;-86
2021/06/08 01:57:48;;;;;;;;;;;;;;;8.77;100.00;99829.41;5053577;28;20280;-86
2021/06/08 02:00:17;;;;;;;;;;;;;;;8.78;100.00;99820.66;5069879;28;19925;-86
2021/06/08 02:02:56;;;;;;;;;;;;;;;8.75;100.00;99821.44;5020633;28;19998;-86
2021/06/08 02:05:27;;;;;;;;;;;;;;;8.72;100.00;99827.81;5053045;28;19980;-86
2021/06/08 02:08:18;;;;;;;;;;;;;;;8.69;100.00;99823.00;5053498;28;19957;-86
2021/06/08 02:10:49;;;;;;;;;;;;;;;8.63;100.00;99832.94;5017207;28;19964;-85
2021/06/08 02:13:34;;;;;;;;;;;;;;;8.62;100.00;99831.34;5036372;28;19925;-86
2021/06/08 02:16:14;;;;;;;;;;;;;;;8.61;100.00;99842.88;5054067;28;20014;-86
2021/06/08 02:18:43;;;;;;;;;;;;;;;8.49;100.00;99835.69;5054360;28;19932;-86
2021/06/08 02:21:11;;;;;;;;;;;;;;;8.30;100.00;99838.75;5052620;28;20017;-86
2021/06/08 02:23:38;;;;;;;;;;;;;;;8.26;100.00;99837.97;5052969;28;20078;-86
2021/06/08 02:26:06;;;;;;;;;;;;;;;8.31;100.00;99840.38;5086516;28;20660;-86
2021/06/08 02:28:36;;;;;;;;;;;;;;;8.31;100.00;99840.38;5052955;28;19928;-85
2021/06/08 02:31:06;;;;;;;;;;;;;;;8.28;100.00;99835.59;5053052;28;20403;-86
2021/06/08 02:33:35;;;;;;;;;;;;;;;8.17;100.00;99845.03;5069580;28;19925;-85
2021/06/08 02:36:06;;;;;;;;;;;;;;;8.01;100.00;99841.75;5051874;28;20023;-86
2021/06/08 02:38:34;;;;;;;;;;;;;;;8.14;100.00;99843.81;5086093;28;20303;-86
2021/06/08 02:41:04;;;;;;;;;;;;;;;8.20;100.00;99833.09;5069304;28;19924;-86
2021/06/08 02:43:32;;;;;;;;;;;;;;;8.14;100.00;99832.69;5069406;28;19925;-86
2021/06/08 02:46:00;;;;;;;;;;;;;;;7.95;100.00;99827.38;5053816;28;19968;-85
2021/06/08 02:48:27;;;;;;;;;;;;;;;7.86;100.00;99828.94;5038414;28;19924;-86
2021/06/08 02:50:55;;;;;;;;;;;;;;;7.74;100.00;99826.47;5052400;28;19928;-86
2021/06/08 02:53:24;;;;;;;;;;;;;;;7.77;100.00;99829.25;5035818;28;20055;-86
2021/06/08 02:55:52;;;;;;;;;;;;;;;7.60;100.00;99827.16;5052684;28;20264;-86
2021/06/08 02:58:20;;;;;;;;;;;;;;;7.68;100.00;99828.78;5035441;28;20318;-86
2021/06/08 03:00:48;;;;;;;;;;;;;;;7.68;100.00;99834.34;5052277;28;19932;-86
2021/06/08 03:03:17;;;;;;;;;;;;;;;7.75;100.00;99834.41;5034456;28;19925;-85
2021/06/08 03:05:59;;;;;;;;;;;;;;;7.81;100.00;99832.88;5052306;28;19928;-86
2021/06/08 03:08:41;;;;;;;;;;;;;;;7.83;100.00;99836.03;5052265;28;19932;-86
2021/06/08 03:11:13;;;;;;;;;;;;;;;7.85;100.00;99839.25;5053618;28;20031;-86
2021/06/08 03:13:40;;;;;;;;;;;;;;;7.54;100.00;99836.22;5052158;28;19925;-87
2021/06/08 03:16:09;;;;;;;;;;;;;;;7.42;100.00;99831.78;5068901;28;19924;-85
2021/06/08 03:18:37;;;;;;;;;;;;;;;7.47;100.00;99831.41;5052089;28;19932;-86
2021/06/08 03:21:14;;;;;;;;;;;;;;;7.61;100.00;99830.72;5035609;28;19986;-86
2021/06/08 03:23:42;;;;;;;;;;;;;;;7.65;100.00;99835.13;5016493;28;19932;-86
2021/06/08 03:26:10;;;;;;;;;;;;;;;7.62;100.00;99835.09;5035531;28;19929;-86
2021/06/08 03:28:38;;;;;;;;;;;;;;;7.49;100.00;99836.56;5085827;28;20300;-86
2021/06/08 03:31:06;;;;;;;;;;;;;;;7.38;100.00;99839.25;5052121;28;19929;-86
2021/06/08 03:33:34;;;;;;;;;;;;;;;7.09;100.00;99840.16;5051930;28;19929;-86
2021/06/08 03:36:02;;;;;;;;;;;;;;;6.82;100.00;99831.16;5052130;28;19925;-86
2021/06/08 03:38:30;;;;;;;;;;;;;;;6.92;100.00;99838.03;5051965;28;19947;-86
2021/06/08 03:40:57;;;;;;;;;;;;;;;7.03;100.00;99836.13;5035051;28;19924;-86
2021/06/08 03:43:25;;;;;;;;;;;;;;;7.12;100.00;99842.19;5053323;28;19925;-86
2021/06/08 03:45:53;;;;;;;;;;;;;;;7.18;100.00;99849.00;5035352;28;19925;-86
2021/06/08 03:48:20;;;;;;;;;;;;;;;7.21;100.00;99840.69;5053431;28;19928;-86
2021/06/08 03:50:50;;;;;;;;;;;;;;;7.38;100.00;99840.06;5055790;28;20300;-86
2021/06/08 03:53:18;;;;;;;;;;;;;;;7.45;100.00;99839.34;5072093;28;19925;-86
2021/06/08 03:55:47;;;;;;;;;;;;;;;7.31;100.00;99834.44;5055545;28;19925;-86
2021/06/08 03:58:17;;;;;;;;;;;;;;;7.26;100.00;99845.09;5038826;28;19929;-87
2021/06/08 04:00:47;;;;;;;;;;;;;;;6.98;100.00;99833.72;5055602;28;19928;-87
2021/06/08 04:03:16;;;;;;;;;;;;;;;7.02;100.00;99840.09;5055358;28;19932;-87
2021/06/08 04:05:45;;;;;;;;;;;;;;;7.08;100.00;99835.81;5055423;28;20034;-86
2021/06/08 04:08:13;;;;;;;;;;;;;;;7.28;100.00;99832.41;5071921;28;19929;-86
2021/06/08 04:10:41;;;;;;;;;;;;;;;7.29;100.00;99838.78;5038702;28;19928;-85
2021/06/08 04:13:08;;;;;;;;;;;;;;;7.26;100.00;99836.78;5035374;28;19960;-93
2021/06/08 04:15:35;;;;;;;;;;;;;;;7.36;100.00;99844.44;5036243;28;19925;-92
2021/06/08 04:18:03;;;;;;;;;;;;;;;7.35;100.00;99840.84;5035991;28;19925;-90
2021/06/08 04:20:30;;;;;;;;;;;;;;;7.43;100.00;99838.91;5039268;28;19928;-90
2021/06/08 04:23:01;;;;;;;;;;;;;;;7.22;100.00;99833.16;5066418;28;19979;-90
2021/06/08 04:25:28;;;;;;;;;;;;;;;7.15;100.00;99844.19;5076772;28;20007;-91
2021/06/08 04:27:55;;;;;;;;;;;;;;;7.18;100.00;99843.44;5039024;28;19925;-90
2021/06/08 04:30:23;;;;;;;;;;;;;;;7.11;100.00;99848.94;5036469;28;19985;-92
2021/06/08 04:32:51;;;;;;;;;;;;;;;7.34;100.00;99858.72;5047031;28;20023;-91
2021/06/08 04:35:18;;;;;;;;;;;;;;;7.56;100.00;99854.13;5058463;28;19925;-91
2021/06/08 04:37:46;;;;;;;;;;;;;;;7.76;100.00;99861.03;5025806;28;19964;-92
2021/06/08 04:40:14;;;;;;;;;;;;;;;7.91;100.00;99864.72;5047604;28;19925;-90
2021/06/08 04:42:43;;;;;;;;;;;;;;;7.90;100.00;99863.94;5018638;28;19925;-91
2021/06/08 04:45:11;;;;;;;;;;;;;;;7.90;100.00;99863.13;5046911;28;20007;-91
2021/06/08 04:47:38;;;;;;;;;;;;;;;7.61;100.00;99851.00;5055042;28;19956;-90
2021/06/08 04:50:09;;;;;;;;;;;;;;;7.72;100.00;99857.44;5055155;28;19932;-91
2021/06/08 04:52:37;;;;;;;;;;;;;;;7.97;100.00;99863.97;5072485;28;19947;-92
2021/06/08 04:55:05;;;;;;;;;;;;;;;8.08;100.00;99858.47;5054909;28;19963;-90
2021/06/08 04:57:33;;;;;;;;;;;;;;;8.05;100.00;99857.28;5047030;28;20396;-91
2021/06/08 05:00:03;;;;;;;;;;;;;;;8.05;100.00;99862.84;5037449;28;19929;-93
2021/06/08 05:02:33;;;;;;;;;;;;;;;8.16;100.00;99860.94;5022279;28;19964;-92
2021/06/08 05:05:02;;;;;;;;;;;;;;;8.09;100.00;99866.44;5054911;28;20015;-90
2021/06/08 05:07:30;;;;;;;;;;;;;;;8.04;100.00;99858.44;5038561;28;19925;-91
2021/06/08 05:09:58;;;;;;;;;;;;;;;8.07;100.00;99874.41;5054842;28;19931;-91
2021/06/08 05:12:26;;;;;;;;;;;;;;;8.00;100.00;99863.22;5054989;28;19925;-91
2021/06/08 05:14:55;;;;;;;;;;;;;;;8.07;100.00;99865.25;5038422;28;20407;-92
2021/06/08 05:17:23;;;;;;;;;;;;;;;8.30;100.00;99874.19;5038401;28;20397;-90
2021/06/08 05:19:52;;;;;;;;;;;;;;;8.54;100.00;99865.94;5054910;28;20010;-90
2021/06/08 05:22:20;;;;;;;;;;;;;;;8.68;100.00;99871.56;5021389;28;19924;-90
2021/06/08 05:24:52;;;;;;;;;;;;;;;8.69;100.00;99866.81;5050128;28;19929;-89
2021/06/08 05:27:21;;;;;;;;;;;;;;;8.84;100.00;99863.69;5058998;28;19929;-90
2021/06/08 05:29:52;;;;;;;;;;;;;;;9.01;100.00;99867.72;5057536;28;20382;-90
2021/06/08 05:32:19;;;;;;;;;;;;;;;9.00;100.00;99861.34;5056276;28;20341;-91
2021/06/08 05:34:46;;;;;;;;;;;;;;;9.19;100.00;99866.56;5054200;28;19978;-91
2021/06/08 05:37:14;;;;;;;;;;;;;;;9.40;100.00;99853.84;5038067;28;19932;-92
2021/06/08 05:39:42;;;;;;;;;;;;;;;9.30;100.00;99872.16;5055061;28;19932;-91
2021/06/08 05:42:11;;;;;;;;;;;;;;;9.66;100.00;99865.44;5054564;28;19947;-92
2021/06/08 05:44:38;;;;;;;;;;;;;;;10.05;100.00;99865.41;5054415;28;20261;-93
2021/06/08 05:47:06;;;;;;;;;;;;;;;10.98;100.00;99873.94;5054084;28;20015;-87
2021/06/08 05:49:35;;;;;;;;;;;;;;;11.94;100.00;99872.94;5041266;28;19932;-93
2021/06/08 05:52:03;;;;;;;;;;;;;;;12.99;100.00;99868.19;5036864;28;19952;-82
2021/06/08 05:54:31;;;;;;;;;;;;;;;13.77;100.00;99863.03;5053435;28;19928;-82
2021/06/08 05:57:24;;;;;;;;;;;;;;;14.37;100.00;99836.72;5054221;28;19924;-82
2021/06/08 05:59:51;;;;;;;;;;;;;;;15.19;100.00;99826.16;5051645;28;19925;-82
2021/06/08 06:02:19;;;;;;;;;;;;;;;15.07;100.00;99809.94;5054208;28;19931;-81
2021/06/08 06:04:47;;;;;;;;;;;;;;;14.85;100.00;99791.94;5054014;28;20017;-82
2021/06/08 06:07:14;;;;;;;;;;;;;;;15.48;100.00;99784.09;5053682;28;20287;-81
2021/06/08 06:09:41;;;;;;;;;;;;;;;15.91;100.00;99771.31;5052620;28;19924;-81
2021/06/08 06:12:09;;;;;;;;;;;;;;;16.37;100.00;99769.25;5052846;28;19925;-82
2021/06/08 06:14:38;;;;;;;;;;;;;;;17.06;100.00;99745.81;5053515;28;19987;-81
2021/06/08 06:17:07;;;;;;;;;;;;;;;16.69;100.00;99726.84;5019398;28;20342;-81
2021/06/08 06:19:35;;;;;;;;;;;;;;;16.32;100.00;99719.81;5050800;28;19932;-81
2021/06/08 06:22:02;;;;;;;;;;;;;;;15.90;100.00;99713.34;5052455;28;19929;-81
2021/06/08 06:24:35;;;;;;;;;;;;;;;15.03;100.00;99707.09;5052985;28;20380;-82
2021/06/08 06:27:03;;;;;;;;;;;;;;;14.47;100.00;99709.19;5048737;28;19932;-81
2021/06/08 06:29:30;;;;;;;;;;;;;;;14.00;100.00;99713.34;5051339;28;20379;-81
2021/06/08 06:31:57;;;;;;;;;;;;;;;13.93;100.00;99719.09;5051327;28;20008;-81
2021/06/08 06:34:25;;;;;;;;;;;;;;;14.49;100.00;99715.19;5050935;28;20395;-82
2021/06/08 06:36:56;;;;;;;;;;;;;;;14.64;100.00;99719.28;5050824;28;19931;-82
2021/06/08 06:39:25;;;;;;;;;;;;;;;14.56;100.00;99717.03;5051981;28;19924;-82
2021/06/08 06:41:54;;;;;;;;;;;;;;;14.43;100.00;99708.47;5051115;28;19928;-81
2021/06/08 06:44:22;;;;;;;;;;;;;;;14.00;100.00;99713.34;5051151;28;19928;-85
2021/06/08 06:46:50;;;;;;;;;;;;;;;13.87;100.00;99715.97;5051466;28;19931;-80
2021/06/08 06:49:17;;;;;;;;;;;;;;;13.93;100.00;99719.09;5050866;28;19925;-81
2021/06/08 06:51:46;;;;;;;;;;;;;;;15.36;100.00;99731.22;5052302;28;20015;-81
2021/06/08 06:54:13;;;;;;;;;;;;;;;17.19;100.00;99726.88;5052516;28;19925;-82
2021/06/08 06:56:40;;;;;;;;;;;;;;;19.17;100.00;99699.44;5052087;28;19929;-82
2021/06/08 06:59:07;;;;;;;;;;;;;;;19.57;100.00;99681.16;5051031;28;19925;-82
2021/06/08 07:01:35;;;;;;;;;;;;;;;20.52;100.00;99667.63;5050887;28;20018;-82
2021/06/08 07:04:03;;;;;;;;;;;;;;;21.67;100.00;99668.84;5052075;28;19929;-82
2021/06/08 07:06:31;;;;;;;;;;;;;;;22.10;100.00;99668.25;5051104;28;19978;-81
2021/06/08 07:09:00;;;;;;;;;;;;;;;22.49;100.00;99675.47;5052290;28;20372;-81
2021/06/08 07:11:27;;;;;;;;;;;;;;;23.20;100.00;99666.56;5083597;28;20406;-82
2021/06/08 07:13:56;;;;;;;;;;;;;;;22.95;100.00;99673.69;5052140;28;19932;-81
2021/06/08 07:16:24;;;;;;;;;;;;;;;22.89;100.00;99673.59;5050817;28;19933;-82
2021/06/08 07:18:52;;;;;;;;;;;;;;;23.17;100.00;99662.66;5049401;28;19933;-90
2021/06/08 07:21:20;;;;;;;;;;;;;;;22.83;100.00;99661.34;5032263;28;20073;-93
2021/06/08 07:23:50;;;;;;;;;;;;;;;22.71;100.00;99655.94;5044525;28;19931;-91
2021/06/08 07:26:17;;;;;;;;;;;;;;;22.29;100.00;99659.06;5051453;28;19925;-89
2021/06/08 07:28:45;;;;;;;;;;;;;;;21.69;100.00;99669.16;5049895;28;20223;-88
2021/06/08 07:31:18;;;;;;;;;;;;;;;21.27;100.00;99672.09;5033488;28;20376;-84
2021/06/08 07:33:51;;;;;;;;;;;;;;;21.54;100.00;99674.78;5060159;28;19970;-86
2021/06/08 07:36:28;;;;;;;;;;;;;;;21.62;100.00;99669.50;5069921;28;19924;-87
2021/06/08 07:39:00;;;;;;;;;;;;;;;22.12;100.00;99665.69;5103751;28;20372;-86
2021/06/08 07:41:39;;;;;;;;;;;;;;;22.52;100.00;99663.88;5087102;28;20029;-83
2021/06/08 07:44:09;;;;;;;;;;;;;;;23.13;100.00;99656.38;5071847;28;20015;-80
2021/06/08 07:46:38;;;;;;;;;;;;;;;23.10;100.00;99658.16;5103514;28;19924;-87
2021/06/08 07:49:06;;;;;;;;;;;;;;;22.85;100.00;99658.78;5052928;28;19947;-88
2021/06/08 07:51:34;;;;;;;;;;;;;;;22.55;100.00;99662.91;5070430;28;19925;-87
2021/06/08 07:54:01;;;;;;;;;;;;;;;22.23;100.00;99663.06;5086541;28;19925;-87
2021/06/08 07:56:29;;;;;;;;;;;;;;;21.50;100.00;99650.63;5070046;28;19930;-87
2021/06/08 07:58:56;;;;;;;;;;;;;;;21.06;100.00;99656.09;5055623;28;19935;-88
2021/06/08 08:01:25;;;;;;;;;;;;;;;21.04;100.00;99652.94;5060252;28;19925;-87
2021/06/08 08:03:53;;;;;;;;;;;;;;;20.94;100.00;99649.34;5010934;28;19960;-87
2021/06/08 08:06:22;;;;;;;;;;;;;;;20.83;100.00;99656.78;5079589;28;19925;-88
2021/06/08 08:08:50;;;;;;;;;;;;;;;20.75;100.00;99656.34;5054447;28;19924;-89
2021/06/08 08:11:18;;;;;;;;;;;;;;;20.79;100.00;99653.34;5052455;28;19931;-89
2021/06/08 08:13:46;;;;;;;;;;;;;;;21.90;100.00;99660.31;5046097;28;20019;-91
2021/06/08 08:16:14;;;;;;;;;;;;;;;22.09;100.00;99653.22;5060355;28;19929;-88
2021/06/08 08:18:45;;;;;;;;;;;;;;;22.83;100.00;99646.28;5036447;28;19982;-87
2021/06/08 08:21:13;;;;;;;;;;;;;;;23.27;100.00;99631.97;5048322;28;20018;-88
2021/06/08 08:23:41;;;;;;;;;;;;;;;23.23;100.00;99637.09;5047495;28;19925;-88
2021/06/08 08:26:09;;;;;;;;;;;;;;;22.82;100.00;99634.13;5057791;28;19967;-87
2021/06/08 08:28:38;;;;;;;;;;;;;;;23.00;100.00;99630.25;5068777;28;19929;-88
2021/06/08 08:31:10;;;;;;;;;;;;;;;22.81;100.00;99623.22;5057418;28;19931;-87
2021/06/08 08:33:37;;;;;;;;;;;;;;;22.04;100.00;99645.34;5055333;28;19925;-89
2021/06/08 08:36:05;;;;;;;;;;;;;;;22.28;100.00;99631.06;5051754;28;20166;-86
2021/06/08 08:38:32;;;;;;;;;;;;;;;22.14;100.00;99632.63;5046757;28;20009;-86
2021/06/08 08:41:00;;;;;;;;;;;;;;;22.37;100.00;99631.75;5013740;28;19924;-78
2021/06/08 08:43:44;;;;;;;;;;;;;;;23.55;100.00;99625.41;5038329;28;19925;-86
2021/06/08 08:46:11;;;;;;;;;;;;;;;23.16;100.00;99620.41;5084945;28;19931;-89
2021/06/08 08:48:39;;;;;;;;;;;;;;;23.65;100.00;99623.16;5049786;28;19924;-87
2021/06/08 08:51:07;;;;;;;;;;;;;;;23.73;100.00;99627.19;5065913;28;20066;-84
2021/06/08 08:53:35;;;;;;;;;;;;;;;23.63;100.00;99625.75;5043535;28;19931;-83
2021/06/08 08:56:16;;;;;;;;;;;;;;;23.20;100.00;99626.66;5068993;28;20006;-84
2021/06/08 08:58:45;;;;;;;;;;;;;;;22.31;100.00;99630.84;5051994;28;19929;-87
2021/06/08 09:01:12;;;;;;;;;;;;;;;21.56;100.00;99643.81;5053839;28;20015;-83
2021/06/08 09:03:40;;;;;;;;;;;;;;;22.01;100.00;99634.94;5054409;28;19924;-84
2021/06/08 09:06:07;;;;;;;;;;;;;;;22.18;100.00;99633.22;5054259;28;20015;-84
2021/06/08 09:08:34;;;;;;;;;;;;;;;22.33;100.00;99622.63;5037903;28;19971;-84
2021/06/08 09:11:01;;;;;;;;;;;;;;;22.20;100.00;99636.38;5037966;28;19931;-84
2021/06/08 09:13:29;;;;;;;;;;;;;;;21.39;100.00;99639.81;5054295;28;19936;-80
2021/06/08 09:15:56;;;;;;;;;;;;;;;20.24;100.00;99629.19;5055340;28;19925;-83
2021/06/08 09:18:23;;;;;;;;;;;;;;;19.97;100.00;99632.03;5054484;28;19959;-83
2021/06/08 09:20:52;;;;;;;;;;;;;;;20.13;100.00;99637.41;5047510;28;19937;-83
2021/06/08 09:23:23;;;;;;;;;;;;;;;20.02;100.00;99629.38;5051481;28;20352;-82
2021/06/08 09:25:51;;;;;;;;;;;;;;;20.16;100.00;99633.63;5040726;28;20020;-83
2021/06/08 09:28:25;;;;;;;;;;;;;;;19.65;100.00;99639.91;5037838;28;19925;-83
2021/06/08 09:31:06;;;;;;;;;;;;;;;19.45;100.00;99636.72;5056161;28;20023;-83
2021/06/08 09:33:40;;;;;;;;;;;;;;;20.20;100.00;99634.25;5053933;28;20192;-84
2021/06/08 09:36:12;;;;;;;;;;;;;;;20.79;100.00;99634.25;5054504;28;20342;-84
2021/06/08 09:38:44;;;;;;;;;;;;;;;21.02;100.00;99627.84;5056132;28;19931;-84
2021/06/08 09:41:16;;;;;;;;;;;;;;;21.21;100.00;99635.03;5052800;28;19924;-84
2021/06/08 09:44:01;;;;;;;;;;;;;;;20.95;100.00;99627.41;5053813;28;20007;-84
2021/06/08 09:46:28;;;;;;;;;;;;;;;21.04;100.00;99619.66;5028256;28;19956;-84
2021/06/08 09:49:08;;;;;;;;;;;;;;;20.08;100.00;99621.00;5042921;28;19995;-84
2021/06/08 09:51:46;;;;;;;;;;;;;;;19.84;100.00;99631.41;5054844;28;19991;-84
2021/06/08 09:54:27;;;;;;;;;;;;;;;19.26;100.00;99626.59;5090283;28;19936;-84
2021/06/08 09:57:12;;;;;;;;;;;;;;;19.07;100.00;99627.78;5053357;28;19978;-82
2021/06/08 09:59:49;;;;;;;;;;;;;;;18.98;100.00;99622.09;5054817;28;19983;-81
2021/06/08 10:02:38;;;;;;;;;;;;;;;19.28;100.00;99626.94;5068575;28;19975;-82
2021/06/08 10:05:15;;;;;;;;;;;;;;;19.58;100.00;99617.53;5046574;28;19932;-82
2021/06/08 10:07:42;;;;;;;;;;;;;;;19.31;100.00;99616.72;5029720;28;19925;-81
2021/06/08 10:10:11;;;;;;;;;;;;;;;19.28;100.00;99626.94;5085310;28;19925;-83
2021/06/08 10:12:58;;;;;;;;;;;;;;;19.39;100.00;99621.63;5052692;28;19932;-83
2021/06/08 10:15:26;;;;;;;;;;;;;;;19.30;100.00;99615.94;5036561;28;20013;-82
2021/06/08 10:18:11;;;;;;;;;;;;;;;18.88;100.00;99612.03;5052839;28;20300;-83
2021/06/08 10:20:40;;;;;;;;;;;;;;;18.96;100.00;99613.28;5085622;28;19948;-81
2021/06/08 10:23:21;;;;;;;;;;;;;;;18.74;100.00;99621.06;5091724;28;20364;-81
2021/06/08 10:25:48;;;;;;;;;;;;;;;18.70;100.00;99622.47;5050315;28;20015;-79
2021/06/08 10:28:16;;;;;;;;;;;;;;;18.62;100.00;99616.31;5055776;28;19947;-81
2021/06/08 10:30:44;;;;;;;;;;;;;;;18.57;100.00;99616.91;5053985;28;19975;-81
2021/06/08 10:33:12;;;;;;;;;;;;;;;18.50;100.00;99605.88;5086187;28;19924;-82
2021/06/08 10:35:45;;;;;;;;;;;;;;;18.79;100.00;99606.31;5053940;28;19925;-81
2021/06/08 10:38:12;;;;;;;;;;;;;;;19.13;100.00;99608.94;5050700;28;19925;-82
2021/06/08 10:40:40;;;;;;;;;;;;;;;19.19;100.00;99612.72;5052269;28;19924;-81
2021/06/08 10:43:13;;;;;;;;;;;;;;;18.85;100.00;99603.66;5052053;28;20319;-83
2021/06/08 10:45:41;;;;;;;;;;;;;;;19.10;100.00;99609.09;5055238;28;19932;-79
2021/06/08 10:48:13;;;;;;;;;;;;;;;19.24;100.00;99609.28;5053166;28;19978;-79
2021/06/08 10:50:45;;;;;;;;;;;;;;;19.37;100.00;99604.28;5053273;28;19925;-77
2021/06/08 10:53:31;;;;;;;;;;;;;;;19.80;100.00;99611.72;5053405;28;20019;-76
2021/06/08 10:56:00;;;;;;;;;;;;;;;19.80;100.00;99602.41;5054636;28;19933;-78
2021/06/08 10:58:48;;;;;;;;;;;;;;;19.66;100.00;99601.78;5057499;28;20013;-80
2021/06/08 11:01:38;;;;;;;;;;;;;;;19.63;100.00;99599.91;5051586;28;20378;-79
2021/06/08 11:04:10;;;;;;;;;;;;;;;19.48;100.00;99601.78;5052796;28;20023;-78
2021/06/08 11:06:39;;;;;;;;;;;;;;;19.39;100.00;99603.81;5054745;28;20058;-78
2021/06/08 11:09:15;;;;;;;;;;;;;;;19.59;100.00;99599.28;5051685;28;19971;-78
2021/06/08 11:11:43;;;;;;;;;;;;;;;19.81;100.00;99607.63;5045125;28;19925;-79
2021/06/08 11:14:29;;;;;;;;;;;;;;;19.50;100.00;99602.13;5052094;28;19975;-79
2021/06/08 11:16:59;;;;;;;;;;;;;;;19.56;100.00;99602.25;5053051;28;19968;-79
2021/06/08 11:19:45;;;;;;;;;;;;;;;19.43;100.00;99608.06;5053281;28;19931;-79
2021/06/08 11:22:14;;;;;;;;;;;;;;;19.35;100.00;99604.00;5052048;28;19925;-79
2021/06/08 11:24:43;;;;;;;;;;;;;;;19.42;100.00;99606.50;5052478;28;20372;-83
2021/06/08 11:27:10;;;;;;;;;;;;;;;19.78;100.00;99590.78;5052919;28;19929;-83
2021/06/08 11:29:55;;;;;;;;;;;;;;;19.97;100.00;99593.13;5053732;28;19932;-83
2021/06/08 11:32:29;;;;;;;;;;;;;;;19.72;100.00;99590.59;5051668;28;20407;-81
2021/06/08 11:35:18;;;;;;;;;;;;;;;19.58;100.00;99589.19;5051516;28;19974;-83
2021/06/08 11:37:53;;;;;;;;;;;;;;;19.63;100.00;99580.06;5049886;28;19969;-79
2021/06/08 11:40:40;;;;;;;;;;;;;;;19.70;100.00;99590.31;5050767;28;19932;-80
2021/06/08 11:43:27;;;;;;;;;;;;;;;20.05;100.00;99585.06;5051277;28;19948;-79
2021/06/08 11:46:05;;;;;;;;;;;;;;;19.93;100.00;99586.03;5052438;28;19951;-79
2021/06/08 11:48:34;;;;;;;;;;;;;;;20.26;100.00;99582.06;5052337;28;19932;-79
2021/06/08 11:51:02;;;;;;;;;;;;;;;20.48;100.00;99576.16;5052584;28;20361;-79
2021/06/08 11:53:29;;;;;;;;;;;;;;;20.34;100.00;99571.16;5051249;28;19925;-79
2021/06/08 11:56:04;;;;;;;;;;;;;;;20.00;100.00;99568.69;5052383;28;19931;-79
2021/06/08 11:58:32;;;;;;;;;;;;;;;19.57;100.00;99570.59;5039684;28;19933;-79
2021/06/08 12:01:00;;;;;;;;;;;;;;;19.67;100.00;99574.25;5051298;28;20008;-79
2021/06/08 12:03:28;;;;;;;;;;;;;;;19.54;100.00;99574.38;5052439;28;19925;-78
2021/06/08 12:05:56;;;;;;;;;;;;;;;19.65;100.00;99574.72;5050496;28;19929;-79
2021/06/08 12:08:30;;;;;;;;;;;;;;;19.66;100.00;99573.44;5052389;28;19925;-78
2021/06/08 12:10:58;;;;;;;;;;;;;;;19.58;100.00;99560.84;5054770;28;19929;-79
2021/06/08 12:13:29;;;;;;;;;;;;;;;19.68;100.00;99565.25;5054802;28;20018;-79
2021/06/08 12:15:57;;;;;;;;;;;;;;;19.97;100.00;99566.78;5054815;28;19932;-81
2021/06/08 12:18:32;;;;;;;;;;;;;;;20.05;100.00;99553.88;5038469;28;19925;-79
2021/06/08 12:21:16;;;;;;;;;;;;;;;19.98;100.00;99563.47;5048859;28;19984;-80
2021/06/08 12:23:43;;;;;;;;;;;;;;;19.95;100.00;99555.94;5039267;28;20081;-80
2021/06/08 12:26:12;;;;;;;;;;;;;;;19.59;100.00;99561.63;5036487;28;20388;-78
2021/06/08 12:28:39;;;;;;;;;;;;;;;19.32;100.00;99555.97;5049364;28;20074;-77
2021/06/08 12:31:09;;;;;;;;;;;;;;;19.22;100.00;99560.78;5054747;28;19932;-77
2021/06/08 12:33:37;;;;;;;;;;;;;;;19.40;100.00;99562.91;5054722;28;19982;-78
2021/06/08 12:36:05;;;;;;;;;;;;;;;19.62;100.00;99558.66;5053378;28;19925;-78
2021/06/08 12:38:32;;;;;;;;;;;;;;;19.92;100.00;99562.56;5054459;28;20054;-78
2021/06/08 12:41:00;;;;;;;;;;;;;;;19.85;100.00;99557.22;5086669;28;19935;-78
2021/06/08 12:43:28;;;;;;;;;;;;;;;19.79;100.00;99547.78;5054377;28;19924;-78
2021/06/08 12:45:56;;;;;;;;;;;;;;;19.96;100.00;99562.41;5054376;28;19975;-77
2021/06/08 12:48:23;;;;;;;;;;;;;;;19.85;100.00;99556.41;5052923;28;19939;-78
2021/06/08 12:50:51;;;;;;;;;;;;;;;19.93;100.00;99557.69;5054465;28;19936;-78
2021/06/08 12:53:22;;;;;;;;;;;;;;;19.93;100.00;99563.34;5054300;28;20007;-78
2021/06/08 12:55:50;;;;;;;;;;;;;;;19.73;100.00;99550.44;5053134;28;20380;-78
2021/06/08 12:58:34;;;;;;;;;;;;;;;19.66;100.00;99561.31;5054591;28;19971;-78
2021/06/08 13:01:07;;;;;;;;;;;;;;;19.62;100.00;99555.81;5054083;28;20387;-78
2021/06/08 13:03:36;;;;;;;;;;;;;;;19.71;100.00;99557.84;5054203;28;19929;-78
2021/06/08 13:06:03;;;;;;;;;;;;;;;19.88;100.00;99561.13;5052760;28;19929;-78
2021/06/08 13:08:34;;;;;;;;;;;;;;;19.78;100.00;99551.84;5054313;28;20407;-78